Ajax, Canada
Current Conditions -  °F | °C
As of 1:00 AM on Thursday 27 Nov 2014 (Local Time) from CYKZ Reporting Station
Broken Clouds Broken Clouds  
Wind Chill: 30°   Ceiling: 4000
Heat Index: 30°   Visibility: 15mi
Dew Point: 19°   Wind: 3mph
Humidity: 64%   Direction: 40°NE
Pressure: 30.06"   Gusts: NA
Location:  43.85°N, 79.02°W
Report Text: CYKZ 270600Z 04003KT 15SM BKN040 M01/M07 A3006 RMK SC7 SLP188
Loading
Personal Weather Stations






























Interactive Weather Map New forecast layout! Learn more

10-Day Weather Forecast

Advertisements
Track Severe Weather on mobile